aviador You're here:

KIXA Decoded Metar

in
Report Time2017-10-17 11:05:00
UTC Time2017-10-17 11:26:48
Flight Rules vfr VFR
Wind010° at 09 Gusting to 14 kt
W.Decomp.*RWY 02: 8.9 kt HW 1.6 kt LCW
W.Rank010° ranks 8
Current wind is above 010° avg. (6.5)
Visibility9999 m
Phenomena:N/A
Clouds:N/A
Expected CloudBase > 2,000 ft AGL from Temp-Dew spread
CeilingNone
Temp08°C
Dew Point03°C (71% RH)
AAT3.3°C
QNH1026 hPa
Raw Report
METAR KIXA 171105Z AUTO 01009G14KT 10SM CLR 08/03 A3029 RMK AO2=

Extra information for KIXA:More info

Social comments